Time;durP1;ratioP1;P1;durP2;ratioP2;P2;SDS_P1;SDS_P2;PMS_P1;PMS_P2;Temp;Humidity;BMP_temperature;BMP_pressure;BME280_temperature;BME280_humidity;BME280_pressure;Samples;Min_cycle;Max_cycle;Signal;HPM_P1;HPM_P2
2022/08/26 00:01:41;;;;;;;8.15;6.40;;;21.70;99.90;;;;;;5057374;28;20194;-70
2022/08/26 00:04:11;;;;;;;8.63;6.50;;;21.60;99.90;;;;;;5060599;28;20190;-71
2022/08/26 00:06:38;;;;;;;9.10;6.30;;;21.40;99.90;;;;;;5058251;28;20209;-69
2022/08/26 00:09:12;;;;;;;9.95;6.28;;;21.40;99.90;;;;;;5059804;28;20656;-70
2022/08/26 00:11:44;;;;;;;8.32;6.65;;;21.60;99.90;;;;;;5060699;28;20596;-70
2022/08/26 00:14:14;;;;;;;8.40;5.90;;;21.70;99.90;;;;;;5058903;28;20190;-70
2022/08/26 00:16:41;;;;;;;7.55;5.60;;;21.70;99.90;;;;;;5052942;28;20206;-70
2022/08/26 00:19:16;;;;;;;8.60;5.85;;;21.70;99.90;;;;;;5063070;28;20206;-70
2022/08/26 00:21:45;;;;;;;9.00;5.90;;;21.50;99.90;;;;;;5060760;28;20202;-68
2022/08/26 00:24:14;;;;;;;7.50;5.80;;;21.40;99.90;;;;;;5065624;28;20209;-70
2022/08/26 00:26:41;;;;;;;8.02;6.20;;;21.30;99.90;;;;;;5044397;28;20218;-71
2022/08/26 00:29:08;;;;;;;8.02;5.55;;;21.20;99.90;;;;;;5063394;28;20309;-70
2022/08/26 00:31:36;;;;;;;7.45;5.70;;;21.30;99.90;;;;;;5061240;28;20202;-68
2022/08/26 00:34:03;;;;;;;9.77;6.00;;;21.40;99.90;;;;;;5064500;28;20681;-70
2022/08/26 00:36:29;;;;;;;11.55;6.15;;;21.40;99.90;;;;;;5060682;28;20279;-70
2022/08/26 00:38:57;;;;;;;8.23;6.13;;;21.50;99.90;;;;;;5061302;28;21612;-70
2022/08/26 00:41:23;;;;;;;8.23;5.93;;;21.50;99.90;;;;;;5059737;28;20198;-70
2022/08/26 00:43:51;;;;;;;10.35;6.47;;;21.40;99.90;;;;;;5061772;28;20200;-70
2022/08/26 00:46:22;;;;;;;9.13;5.85;;;21.30;99.90;;;;;;5047274;28;20631;-70
2022/08/26 00:48:57;;;;;;;8.20;5.72;;;21.40;99.90;;;;;;5060334;28;20271;-70
2022/08/26 00:51:26;;;;;;;7.47;5.40;;;21.40;99.90;;;;;;5063392;28;20243;-70
2022/08/26 00:54:06;;;;;;;7.72;5.50;;;21.30;99.90;;;;;;5061740;28;21022;-70
2022/08/26 00:56:52;;;;;;;6.80;5.18;;;21.20;99.90;;;;;;5063931;28;20214;-69
2022/08/26 00:59:19;;;;;;;7.80;5.82;;;21.30;99.90;;;;;;5062542;28;20194;-70
2022/08/26 01:01:47;;;;;;;8.68;5.35;;;21.50;99.90;;;;;;5063698;28;20406;-69
2022/08/26 01:04:18;;;;;;;7.80;5.45;;;21.40;99.90;;;;;;5060421;28;20191;-70
2022/08/26 01:06:47;;;;;;;8.25;5.70;;;21.30;99.90;;;;;;5060620;28;20226;-70
2022/08/26 01:09:15;;;;;;;7.20;5.00;;;21.20;99.90;;;;;;5062835;28;20218;-70
2022/08/26 01:11:43;;;;;;;6.07;4.80;;;21.10;99.90;;;;;;5062998;28;20205;-70
2022/08/26 01:14:13;;;;;;;7.30;5.00;;;21.00;99.90;;;;;;5063228;28;20661;-68
2022/08/26 01:16:39;;;;;;;7.50;5.25;;;21.00;99.90;;;;;;5042084;28;20206;-70
2022/08/26 01:19:29;;;;;;;7.10;5.35;;;20.90;99.90;;;;;;5046949;28;20212;-70
2022/08/26 01:22:06;;;;;;;9.20;5.38;;;21.10;99.90;;;;;;5061412;28;21623;-70
2022/08/26 01:24:34;;;;;;;6.95;5.13;;;21.20;99.90;;;;;;5064668;28;20209;-70
2022/08/26 01:27:06;;;;;;;6.43;5.30;;;21.30;99.90;;;;;;5063891;28;20296;-70
2022/08/26 01:29:34;;;;;;;7.60;5.05;;;21.30;99.90;;;;;;5067332;28;20218;-67
2022/08/26 01:32:03;;;;;;;6.65;5.18;;;21.30;99.90;;;;;;5065304;28;20243;-68
2022/08/26 01:34:36;;;;;;;6.57;5.22;;;21.20;99.90;;;;;;5067627;28;20217;-69
2022/08/26 01:37:25;;;;;;;6.45;4.70;;;21.20;99.90;;;;;;5042093;28;20273;-70
2022/08/26 01:39:54;;;;;;;6.53;5.25;;;21.10;99.90;;;;;;5065232;28;20198;-70
2022/08/26 01:42:26;;;;;;;8.00;5.20;;;20.90;99.90;;;;;;5064210;28;20197;-70
2022/08/26 01:45:04;;;;;;;7.22;5.18;;;21.00;99.90;;;;;;5065523;28;20224;-68
2022/08/26 01:47:32;;;;;;;8.82;5.53;;;21.10;99.90;;;;;;5059019;28;20631;-70
2022/08/26 01:50:01;;;;;;;12.60;5.28;;;21.20;99.90;;;;;;5061855;28;20260;-68
2022/08/26 01:52:31;;;;;;;5.70;4.50;;;21.10;99.90;;;;;;5064136;28;20194;-70
2022/08/26 01:54:59;;;;;;;8.82;5.05;;;21.10;99.90;;;;;;5065027;28;20191;-70
2022/08/26 01:57:26;;;;;;;8.15;5.50;;;20.90;99.90;;;;;;5066331;28;20499;-70
2022/08/26 01:59:58;;;;;;;9.63;5.18;;;20.80;99.90;;;;;;5071565;28;20202;-70
2022/08/26 02:02:25;;;;;;;10.85;6.07;;;20.60;99.90;;;;;;5063192;28;20244;-70
2022/08/26 02:05:00;;;;;;;9.02;6.53;;;20.80;99.90;;;;;;5067251;28;20202;-70
2022/08/26 02:07:28;;;;;;;7.57;5.90;;;20.80;99.90;;;;;;5063588;28;20221;-70
2022/08/26 02:09:55;;;;;;;7.90;6.30;;;20.80;99.90;;;;;;5070837;28;20273;-70
2022/08/26 02:12:23;;;;;;;10.57;6.28;;;20.80;99.90;;;;;;5055889;28;20190;-67
2022/08/26 02:14:56;;;;;;;8.38;6.47;;;20.70;99.90;;;;;;5068586;28;20202;-70
2022/08/26 02:17:32;;;;;;;9.10;7.15;;;20.70;99.90;;;;;;5069560;28;20218;-71
2022/08/26 02:20:01;;;;;;;11.10;7.47;;;20.70;99.90;;;;;;5064944;28;20293;-70
2022/08/26 02:22:29;;;;;;;9.52;7.07;;;20.70;99.90;;;;;;5059300;28;20213;-68
2022/08/26 02:25:08;;;;;;;13.35;7.22;;;20.80;99.90;;;;;;5067011;28;20248;-70
2022/08/26 02:27:35;;;;;;;11.55;7.15;;;21.00;99.90;;;;;;5060892;28;20226;-70
2022/08/26 02:30:07;;;;;;;8.52;5.82;;;21.00;99.90;;;;;;5066654;28;20211;-68
2022/08/26 02:32:34;;;;;;;7.97;6.70;;;21.00;99.90;;;;;;5070621;28;20202;-68
2022/08/26 02:35:00;;;;;;;9.75;6.38;;;20.90;99.90;;;;;;5071120;28;20564;-68
2022/08/26 02:37:29;;;;;;;9.88;6.80;;;20.90;99.90;;;;;;5060985;28;20218;-67
2022/08/26 02:39:56;;;;;;;11.07;7.07;;;20.90;99.90;;;;;;5069352;28;20482;-70
2022/08/26 02:42:22;;;;;;;12.52;7.60;;;20.80;99.90;;;;;;5061163;28;20293;-69
2022/08/26 02:44:50;;;;;;;10.73;7.60;;;20.80;99.90;;;;;;5062474;28;20198;-70
2022/08/26 02:47:17;;;;;;;12.88;7.68;;;20.90;99.90;;;;;;5056222;28;20269;-70
2022/08/26 02:49:44;;;;;;;10.95;7.18;;;21.00;99.90;;;;;;5059641;28;20214;-70
2022/08/26 02:52:13;;;;;;;11.77;7.70;;;20.80;99.90;;;;;;5069227;28;20201;-68
2022/08/26 02:54:39;;;;;;;11.30;8.70;;;20.80;99.90;;;;;;5064285;28;20190;-70
2022/08/26 02:57:07;;;;;;;11.93;8.15;;;20.80;99.90;;;;;;5067861;28;20545;-70
2022/08/26 02:59:34;;;;;;;12.73;8.00;;;20.80;99.90;;;;;;5066895;28;20210;-69
2022/08/26 03:02:01;;;;;;;11.77;8.43;;;20.80;99.90;;;;;;5052839;28;20198;-70
2022/08/26 03:04:29;;;;;;;10.10;7.10;;;20.90;99.90;;;;;;5067466;28;20583;-69
2022/08/26 03:06:58;;;;;;;10.73;7.20;;;20.90;99.90;;;;;;5069518;28;20735;-70
2022/08/26 03:09:26;;;;;;;9.27;6.70;;;20.80;99.90;;;;;;5069637;28;20218;-70
2022/08/26 03:11:54;;;;;;;15.77;7.22;;;20.70;99.90;;;;;;5070068;28;20202;-70
2022/08/26 03:14:22;;;;;;;10.77;6.97;;;20.80;99.90;;;;;;5063076;28;20274;-68
2022/08/26 03:16:51;;;;;;;8.77;6.70;;;20.70;99.90;;;;;;5065721;28;20256;-70
2022/08/26 03:19:17;;;;;;;9.60;6.57;;;20.70;99.90;;;;;;5070649;28;20604;-70
2022/08/26 03:21:44;;;;;;;9.63;6.60;;;20.60;99.90;;;;;;5070300;28;20217;-71
2022/08/26 03:24:14;;;;;;;9.73;6.70;;;20.70;99.90;;;;;;5061247;28;20190;-70
2022/08/26 03:26:40;;;;;;;9.13;6.50;;;20.70;99.90;;;;;;5062272;28;20737;-70
2022/08/26 03:32:05;;;;;;;9.97;6.83;;;20.60;99.90;;;;;;5057394;28;20191;-70
2022/08/26 03:34:32;;;;;;;14.93;7.40;;;20.70;99.90;;;;;;5062340;28;20226;-70
2022/08/26 03:36:58;;;;;;;10.40;7.30;;;20.80;99.90;;;;;;5063175;28;20626;-70
2022/08/26 03:39:25;;;;;;;9.47;8.00;;;20.80;99.90;;;;;;5064074;28;20852;-71
2022/08/26 03:41:53;;;;;;;10.75;6.85;;;21.00;99.90;;;;;;5060548;28;20309;-71
2022/08/26 03:44:19;;;;;;;7.85;6.50;;;21.00;99.90;;;;;;5063121;28;20273;-71
2022/08/26 03:46:46;;;;;;;10.25;7.43;;;20.90;99.90;;;;;;5066715;28;20595;-70
2022/08/26 03:49:13;;;;;;;10.43;6.90;;;20.80;99.90;;;;;;5062906;28;20620;-71
2022/08/26 03:51:40;;;;;;;8.52;6.82;;;20.90;99.90;;;;;;5068682;28;20533;-69
2022/08/26 03:54:08;;;;;;;12.32;6.95;;;20.80;99.90;;;;;;5065347;28;22533;-69
2022/08/26 03:56:35;;;;;;;9.40;6.55;;;20.90;99.90;;;;;;5060984;28;20218;-67
2022/08/26 03:59:03;;;;;;;10.13;6.80;;;20.90;99.90;;;;;;5064936;28;20194;-70
2022/08/26 04:01:33;;;;;;;13.45;7.40;;;20.80;99.90;;;;;;5056504;28;20190;-71
2022/08/26 04:04:00;;;;;;;9.25;6.78;;;20.80;99.90;;;;;;5047814;28;20186;-71
2022/08/26 04:06:35;;;;;;;10.43;6.60;;;20.80;99.90;;;;;;5063210;28;20641;-70
2022/08/26 04:09:05;;;;;;;8.63;6.18;;;20.70;99.90;;;;;;5065518;28;20677;-70
2022/08/26 04:11:34;;;;;;;9.10;6.03;;;20.70;99.90;;;;;;5055778;28;20213;-70
2022/08/26 04:14:09;;;;;;;8.43;6.15;;;20.70;99.90;;;;;;5061924;28;20225;-70
2022/08/26 04:16:37;;;;;;;9.93;6.43;;;20.70;99.90;;;;;;5057728;28;20218;-68
2022/08/26 04:19:05;;;;;;;9.38;6.25;;;20.60;99.90;;;;;;5065233;28;20198;-70
2022/08/26 04:21:33;;;;;;;8.82;5.63;;;20.70;99.90;;;;;;5069680;28;20297;-70
2022/08/26 04:24:00;;;;;;;10.35;5.95;;;20.70;99.90;;;;;;5049474;28;20199;-71
2022/08/26 04:26:35;;;;;;;9.18;6.40;;;20.80;99.90;;;;;;5060667;28;20245;-68
2022/08/26 04:29:10;;;;;;;9.77;5.57;;;20.90;99.90;;;;;;5064641;28;20641;-70
2022/08/26 04:31:37;;;;;;;9.07;5.90;;;20.90;99.90;;;;;;5065069;28;20222;-71
2022/08/26 04:34:04;;;;;;;7.10;5.70;;;20.80;99.90;;;;;;5058104;28;20639;-70
2022/08/26 04:36:31;;;;;;;11.07;5.72;;;20.80;99.90;;;;;;5064806;28;20210;-71
2022/08/26 04:39:01;;;;;;;7.13;5.65;;;20.80;99.90;;;;;;5069354;28;20286;-71
2022/08/26 04:41:28;;;;;;;6.90;5.53;;;20.80;99.90;;;;;;5061416;28;20229;-69
2022/08/26 04:43:57;;;;;;;10.68;5.70;;;20.80;99.90;;;;;;5065454;28;20194;-69
2022/08/26 04:46:24;;;;;;;7.07;5.30;;;21.00;99.90;;;;;;5062690;28;20580;-71
2022/08/26 04:48:53;;;;;;;8.27;5.53;;;21.30;99.90;;;;;;5067738;28;20311;-71
2022/08/26 04:51:26;;;;;;;6.65;5.63;;;21.50;99.90;;;;;;5057318;28;20218;-71
2022/08/26 04:53:58;;;;;;;9.48;5.65;;;21.60;99.90;;;;;;5064691;28;20277;-69
2022/08/26 04:56:36;;;;;;;7.65;5.60;;;21.60;99.90;;;;;;5064045;28;20214;-70
2022/08/26 04:59:06;;;;;;;7.68;5.50;;;21.70;99.90;;;;;;5064411;28;20194;-71
2022/08/26 05:01:44;;;;;;;7.45;5.20;;;21.90;99.90;;;;;;5054387;28;20202;-71
2022/08/26 05:04:12;;;;;;;7.07;5.43;;;22.00;99.90;;;;;;5058199;28;20662;-69
2022/08/26 05:06:42;;;;;;;9.73;5.50;;;22.10;99.90;;;;;;5050636;28;20250;-72
2022/08/26 05:09:13;;;;;;;7.25;5.20;;;22.20;99.90;;;;;;5050478;28;20259;-71
2022/08/26 05:11:40;;;;;;;9.20;5.80;;;22.30;99.90;;;;;;5058004;28;20215;-71
2022/08/26 05:14:07;;;;;;;9.50;5.82;;;22.30;99.90;;;;;;5059680;28;20195;-70
2022/08/26 05:16:34;;;;;;;10.40;6.20;;;22.30;99.90;;;;;;5063761;28;20492;-71
2022/08/26 05:19:02;;;;;;;8.55;5.55;;;22.30;99.90;;;;;;5057569;28;20294;-69
2022/08/26 05:21:29;;;;;;;8.70;6.20;;;22.40;99.90;;;;;;5043629;28;20637;-70
2022/08/26 05:23:56;;;;;;;10.32;6.32;;;22.40;99.90;;;;;;5059406;28;20198;-71
2022/08/26 05:26:25;;;;;;;10.30;5.97;;;22.50;99.90;;;;;;5055240;28;20226;-71
2022/08/26 05:28:53;;;;;;;11.63;5.95;;;22.50;99.90;;;;;;5045898;28;20197;-71
2022/08/26 05:31:24;;;;;;;10.48;6.85;;;22.60;99.90;;;;;;5062877;28;20252;-69
2022/08/26 05:33:52;;;;;;;9.90;6.88;;;22.70;99.90;;;;;;5060562;28;20193;-76
2022/08/26 05:36:21;;;;;;;8.60;6.78;;;22.70;99.90;;;;;;5056208;28;20215;-69
2022/08/26 05:38:48;;;;;;;9.43;7.57;;;22.70;99.90;;;;;;5062481;28;20201;-70
2022/08/26 05:41:27;;;;;;;8.93;6.80;;;22.70;99.90;;;;;;5054874;28;20194;-70
2022/08/26 05:44:04;;;;;;;11.80;8.05;;;22.70;99.90;;;;;;5059634;28;20248;-70
2022/08/26 05:46:30;;;;;;;10.77;7.78;;;22.70;99.90;;;;;;5064203;28;20218;-70
2022/08/26 05:48:58;;;;;;;9.73;7.57;;;22.60;99.90;;;;;;5063596;28;20601;-68
2022/08/26 05:51:26;;;;;;;13.07;8.68;;;22.70;99.90;;;;;;5063456;28;20778;-70
2022/08/26 05:53:56;;;;;;;12.80;8.57;;;22.70;99.90;;;;;;5059460;28;20194;-70
2022/08/26 05:56:24;;;;;;;13.00;8.70;;;22.70;99.90;;;;;;5065530;28;20812;-70
2022/08/26 05:58:52;;;;;;;13.23;8.40;;;22.80;99.90;;;;;;5065714;28;20194;-70
2022/08/26 06:01:21;;;;;;;13.52;8.35;;;22.80;99.90;;;;;;5062946;28;20217;-69
2022/08/26 06:03:51;;;;;;;13.07;9.13;;;22.80;99.90;;;;;;5066862;28;20203;-70
2022/08/26 06:06:21;;;;;;;15.93;9.90;;;22.90;99.90;;;;;;5066158;28;20652;-68
2022/08/26 06:08:57;;;;;;;19.70;9.70;;;23.00;99.90;;;;;;5060040;28;20276;-70
2022/08/26 06:11:26;;;;;;;12.40;8.90;;;23.00;99.90;;;;;;5069445;28;20221;-70
2022/08/26 06:13:55;;;;;;;16.85;10.70;;;23.00;99.90;;;;;;5067024;28;20592;-69
2022/08/26 06:16:25;;;;;;;14.02;11.05;;;23.00;99.90;;;;;;5056750;28;20246;-70
2022/08/26 06:18:53;;;;;;;16.90;11.25;;;23.10;99.90;;;;;;5046068;28;20206;-69
2022/08/26 06:21:31;;;;;;;16.52;11.00;;;23.10;99.90;;;;;;5053193;28;20573;-70
2022/08/26 06:26:55;;;;;;;15.65;12.05;;;23.20;99.90;;;;;;5053725;28;20234;-71
2022/08/26 06:29:24;;;;;;;12.15;9.43;;;23.30;99.90;;;;;;5056596;28;20199;-69
2022/08/26 06:31:52;;;;;;;17.67;12.48;;;23.30;99.90;;;;;;5052643;28;20207;-70
2022/08/26 06:34:22;;;;;;;17.60;11.38;;;23.40;99.90;;;;;;5055430;28;20196;-69
2022/08/26 06:36:57;;;;;;;13.35;11.02;;;23.40;99.90;;;;;;5058187;28;20215;-69
2022/08/26 06:39:24;;;;;;;17.52;12.55;;;23.50;99.90;;;;;;5057734;28;20295;-69
2022/08/26 06:41:50;;;;;;;16.58;11.35;;;23.60;99.90;;;;;;5058168;28;20198;-69
2022/08/26 06:44:18;;;;;;;16.27;11.23;;;23.60;99.90;;;;;;5054552;28;20195;-68
2022/08/26 06:46:45;;;;;;;18.38;11.75;;;23.70;99.90;;;;;;5057518;28;20218;-68
2022/08/26 06:49:15;;;;;;;18.45;12.82;;;23.80;99.90;;;;;;5053432;28;20437;-69
2022/08/26 06:51:43;;;;;;;15.55;11.93;;;23.80;99.90;;;;;;5054489;28;20214;-70
2022/08/26 06:54:10;;;;;;;13.70;11.25;;;23.70;99.90;;;;;;5057081;28;20685;-68
2022/08/26 06:56:40;;;;;;;15.70;11.35;;;23.70;99.90;;;;;;5053348;28;20219;-69
2022/08/26 06:59:08;;;;;;;17.88;11.88;;;23.70;99.90;;;;;;5054875;28;20202;-70
2022/08/26 07:01:38;;;;;;;16.95;12.25;;;23.60;99.90;;;;;;5052190;28;20217;-70
2022/08/26 07:04:10;;;;;;;19.70;13.45;;;23.70;99.90;;;;;;5055148;28;20201;-71
2022/08/26 07:06:39;;;;;;;20.05;15.32;;;23.70;99.90;;;;;;5055470;28;20271;-71
2022/08/26 07:09:09;;;;;;;21.13;14.95;;;23.70;99.90;;;;;;5056918;28;20285;-70
2022/08/26 07:11:37;;;;;;;23.33;15.32;;;23.60;99.90;;;;;;5057859;28;20938;-70
2022/08/26 07:14:05;;;;;;;19.33;14.68;;;23.60;99.90;;;;;;5034892;28;21115;-70
2022/08/26 07:16:32;;;;;;;22.90;15.23;;;23.60;99.90;;;;;;5053715;28;20221;-70
2022/08/26 07:18:59;;;;;;;18.45;13.75;;;23.70;99.90;;;;;;5061781;28;20201;-70
2022/08/26 07:21:29;;;;;;;20.55;14.30;;;23.90;99.90;;;;;;5053601;28;20473;-68
2022/08/26 07:23:55;;;;;;;21.67;15.65;;;24.10;99.90;;;;;;5055580;28;20315;-69
2022/08/26 07:26:29;;;;;;;21.63;15.15;;;24.30;99.90;;;;;;5052850;28;20559;-69
2022/08/26 07:28:57;;;;;;;26.20;15.88;;;24.40;99.90;;;;;;5058231;28;20206;-71
2022/08/26 07:31:28;;;;;;;29.63;15.88;;;24.40;99.90;;;;;;5052341;28;20210;-71
2022/08/26 07:33:55;;;;;;;24.63;16.98;;;24.30;99.90;;;;;;5060121;28;20270;-71
2022/08/26 07:36:23;;;;;;;21.85;15.02;;;24.20;99.90;;;;;;5056075;28;20205;-67
2022/08/26 07:38:51;;;;;;;18.85;13.85;;;24.30;99.90;;;;;;5058143;28;20198;-68
2022/08/26 07:41:21;;;;;;;22.38;14.13;;;24.40;99.90;;;;;;5055634;28;20470;-68
2022/08/26 07:43:48;;;;;;;22.58;14.80;;;24.60;99.90;;;;;;5056024;28;20195;-69
2022/08/26 07:46:18;;;;;;;22.02;15.32;;;24.70;99.90;;;;;;5057958;28;20210;-68
2022/08/26 07:48:56;;;;;;;23.90;14.80;;;24.80;99.90;;;;;;5055780;28;20283;-69
2022/08/26 07:51:23;;;;;;;24.38;17.02;;;24.90;99.90;;;;;;5060106;28;20300;-71
2022/08/26 07:53:51;;;;;;;25.38;15.73;;;25.00;99.90;;;;;;5058765;28;20191;-70
2022/08/26 07:56:21;;;;;;;21.38;15.52;;;25.00;99.90;;;;;;5060701;28;20245;-70
2022/08/26 07:58:49;;;;;;;20.27;14.93;;;25.00;99.90;;;;;;5055506;28;20260;-70
2022/08/26 08:01:18;;;;;;;22.17;15.52;;;25.10;99.90;;;;;;5056174;28;20661;-68
2022/08/26 08:03:46;;;;;;;25.17;17.40;;;25.10;99.90;;;;;;5058189;28;20205;-69
2022/08/26 08:06:17;;;;;;;26.52;16.73;;;25.20;99.90;;;;;;5055181;28;20217;-69
2022/08/26 08:08:44;;;;;;;26.40;17.67;;;25.20;99.90;;;;;;5052009;28;20190;-71
2022/08/26 08:11:11;;;;;;;23.98;16.30;;;25.20;99.90;;;;;;5059856;28;20217;-70
2022/08/26 08:13:37;;;;;;;22.40;15.95;;;25.20;99.90;;;;;;5055371;28;20203;-70
2022/08/26 08:16:05;;;;;;;27.60;17.63;;;25.20;99.90;;;;;;5058481;28;20222;-70
2022/08/26 08:18:35;;;;;;;25.67;17.15;;;25.30;99.90;;;;;;5055576;28;20368;-69
2022/08/26 08:21:02;;;;;;;28.30;16.67;;;25.30;99.90;;;;;;5058123;28;20201;-69
2022/08/26 08:23:47;;;;;;;26.17;17.20;;;25.40;99.90;;;;;;5055815;28;20204;-67
2022/08/26 08:26:14;;;;;;;26.65;15.85;;;25.70;99.90;;;;;;5061400;28;20253;-70
2022/08/26 08:28:42;;;;;;;24.50;17.15;;;25.80;99.90;;;;;;5059981;28;20668;-69
2022/08/26 08:31:24;;;;;;;24.67;16.15;;;26.10;99.90;;;;;;5060029;28;20309;-70
2022/08/26 08:34:11;;;;;;;21.23;15.75;;;26.40;99.90;;;;;;5061280;28;20228;-71
2022/08/26 08:36:37;;;;;;;24.40;16.25;;;26.70;99.90;;;;;;5062539;28;20222;-70
2022/08/26 08:39:04;;;;;;;22.55;16.02;;;26.80;99.90;;;;;;5053912;28;20205;-72
2022/08/26 08:42:03;;;;;;;22.65;16.95;;;27.00;99.90;;;;;;5062037;28;20202;-71
2022/08/26 08:44:29;;;;;;;26.98;17.73;;;27.30;99.90;;;;;;5052821;28;20202;-70
2022/08/26 08:47:12;;;;;;;24.48;15.75;;;27.40;99.90;;;;;;5060600;28;20225;-70
2022/08/26 08:49:39;;;;;;;24.48;17.13;;;27.70;99.90;;;;;;5059492;28;20206;-71
2022/08/26 08:52:27;;;;;;;31.40;17.83;;;27.90;99.90;;;;;;5051859;28;20279;-69
2022/08/26 08:54:55;;;;;;;27.70;18.00;;;27.90;99.90;;;;;;5058271;28;20195;-71
2022/08/26 08:57:41;;;;;;;24.23;17.90;;;27.80;99.90;;;;;;5056165;28;20232;-71
2022/08/26 09:00:16;;;;;;;30.40;18.25;;;27.80;99.90;;;;;;5059517;28;20251;-70
2022/08/26 09:02:51;;;;;;;26.48;18.35;;;27.80;99.90;;;;;;5058341;28;20210;-69
2022/08/26 09:05:30;;;;;;;27.48;17.77;;;27.80;99.90;;;;;;5060057;28;20198;-68
2022/08/26 09:08:31;;;;;;;23.70;17.58;;;27.90;99.90;;;;;;5060529;28;20221;-70
2022/08/26 09:10:59;;;;;;;27.98;17.40;;;28.00;99.90;;;;;;5037667;28;20214;-70
2022/08/26 09:13:27;;;;;;;37.63;19.77;;;28.30;99.90;;;;;;5062034;28;20198;-71
2022/08/26 09:16:15;;;;;;;31.25;18.55;;;28.60;99.90;;;;;;5061534;28;20210;-70
2022/08/26 09:19:02;;;;;;;28.85;17.63;;;28.40;99.90;;;;;;5053266;28;20209;-68
2022/08/26 09:21:30;;;;;;;28.25;18.63;;;28.60;99.90;;;;;;5054564;28;20236;-71
2022/08/26 09:23:58;;;;;;;29.10;19.92;;;28.60;99.90;;;;;;5053990;28;20950;-72
2022/08/26 09:26:41;;;;;;;28.15;19.05;;;28.50;99.90;;;;;;5055539;28;20225;-71
2022/08/26 09:29:25;;;;;;;30.08;19.65;;;28.50;99.90;;;;;;5056470;28;20744;-71
2022/08/26 09:32:22;;;;;;;27.15;17.95;;;28.60;99.90;;;;;;5056509;28;20210;-71
2022/08/26 09:35:06;;;;;;;27.83;19.40;;;28.50;99.90;;;;;;5054716;28;20586;-72
2022/08/26 09:37:42;;;;;;;33.47;19.45;;;28.40;99.90;;;;;;5053828;28;20263;-70
2022/08/26 09:40:26;;;;;;;28.23;19.23;;;28.30;99.90;;;;;;5037040;28;20201;-70
2022/08/26 09:43:15;;;;;;;25.60;18.33;;;28.20;99.90;;;;;;5053066;28;20794;-71
2022/08/26 09:45:55;;;;;;;31.73;20.58;;;28.10;99.90;;;;;;5054549;28;20210;-72
2022/08/26 09:48:32;;;;;;;30.77;19.85;;;28.20;99.90;;;;;;5053923;28;20205;-71
2022/08/26 09:51:25;;;;;;;29.17;21.45;;;28.10;99.90;;;;;;5056608;28;20224;-72
2022/08/26 09:53:57;;;;;;;31.15;20.45;;;28.40;99.90;;;;;;5056233;28;20198;-72
2022/08/26 09:56:31;;;;;;;25.80;17.80;;;28.50;99.90;;;;;;5040703;28;20260;-72
2022/08/26 09:58:59;;;;;;;22.88;17.70;;;28.40;99.90;;;;;;5057297;28;20214;-71
2022/08/26 10:01:34;;;;;;;23.75;16.58;;;28.50;99.90;;;;;;5057578;28;20247;-69
2022/08/26 10:04:06;;;;;;;21.58;16.00;;;28.60;99.90;;;;;;5057397;28;20202;-69
2022/08/26 10:06:39;;;;;;;23.88;16.67;;;28.70;99.90;;;;;;5039553;28;20773;-72
2022/08/26 10:09:11;;;;;;;22.95;16.83;;;28.90;99.90;;;;;;5056214;28;20199;-72
2022/08/26 10:11:50;;;;;;;25.85;17.10;;;29.10;99.90;;;;;;5057541;28;20214;-71
2022/08/26 10:14:20;;;;;;;22.77;16.50;;;29.30;99.90;;;;;;5062205;28;20189;-70
2022/08/26 10:17:13;;;;;;;20.67;14.63;;;29.30;99.90;;;;;;5062384;28;20271;-71
2022/08/26 10:19:48;;;;;;;18.27;13.15;;;29.50;99.90;;;;;;4998926;28;20205;-71
2022/08/26 10:22:44;;;;;;;19.15;13.45;;;29.70;99.90;;;;;;5068017;28;20279;-70
2022/08/26 10:25:19;;;;;;;18.73;13.32;;;30.00;99.90;;;;;;5061848;28;20194;-71
2022/08/26 10:28:15;;;;;;;17.85;13.00;;;30.30;99.90;;;;;;5061202;28;20253;-69
2022/08/26 10:30:49;;;;;;;18.08;14.75;;;30.60;99.90;;;;;;5065882;28;20194;-71
2022/08/26 10:33:17;;;;;;;18.50;14.63;;;30.80;99.90;;;;;;5066732;28;20222;-71
2022/08/26 10:36:04;;;;;;;20.90;14.18;;;30.80;99.90;;;;;;5067851;28;20256;-73
2022/08/26 10:38:38;;;;;;;19.60;14.10;;;30.90;99.90;;;;;;5063915;28;20190;-73
2022/08/26 10:41:20;;;;;;;17.33;12.48;;;30.90;99.90;;;;;;5066632;28;20248;-72
2022/08/26 10:43:53;;;;;;;18.38;12.68;;;31.00;99.90;;;;;;5067871;28;20195;-73
2022/08/26 10:46:27;;;;;;;18.63;13.45;;;31.40;99.90;;;;;;5062938;28;20267;-72
2022/08/26 10:49:04;;;;;;;20.10;13.88;;;31.80;99.90;;;;;;5072725;28;20682;-74
2022/08/26 10:51:45;;;;;;;17.88;13.32;;;31.70;99.90;;;;;;5069661;28;20305;-72
2022/08/26 10:54:18;;;;;;;17.30;13.32;;;31.70;99.90;;;;;;5048201;28;20280;-72
2022/08/26 10:57:06;;;;;;;16.23;12.60;;;31.80;99.90;;;;;;5065465;28;20597;-73
2022/08/26 10:59:44;;;;;;;23.60;13.60;;;32.00;99.90;;;;;;5070561;28;20245;-70
2022/08/26 11:02:34;;;;;;;17.40;13.57;;;32.10;99.90;;;;;;5061777;28;20197;-71
2022/08/26 11:05:29;;;;;;;19.17;12.90;;;32.10;99.90;;;;;;5064088;28;20691;-70
2022/08/26 11:08:28;;;;;;;19.58;13.00;;;32.20;99.90;;;;;;5063210;28;20271;-71
2022/08/26 11:10:58;;;;;;;17.20;12.93;;;32.50;99.90;;;;;;5068370;28;20267;-71
2022/08/26 11:13:59;;;;;;;19.42;13.20;;;32.90;99.90;;;;;;5066413;28;20475;-71
2022/08/26 11:16:37;;;;;;;23.45;14.00;;;33.50;99.90;;;;;;5061598;28;20274;-71
2022/08/26 11:19:29;;;;;;;19.27;14.23;;;33.60;99.90;;;;;;5067494;28;20194;-72
2022/08/26 11:22:32;;;;;;;18.27;13.35;;;33.60;99.90;;;;;;5065133;28;20198;-71
2022/08/26 11:25:03;;;;;;;21.75;14.48;;;33.80;99.90;;;;;;5073020;28;20191;-70
2022/08/26 11:27:37;;;;;;;23.00;13.13;;;34.30;99.90;;;;;;5066614;28;20222;-71
2022/08/26 11:30:14;;;;;;;28.27;13.55;;;34.70;99.90;;;;;;5066579;28;20198;-71
2022/08/26 11:32:46;;;;;;;28.98;14.75;;;34.80;99.90;;;;;;5068407;28;20594;-72
2022/08/26 11:35:20;;;;;;;20.40;13.65;;;35.00;99.90;;;;;;5055175;28;20312;-71
2022/08/26 11:37:49;;;;;;;22.48;14.48;;;35.30;99.90;;;;;;5067030;28;20209;-72
2022/08/26 11:40:19;;;;;;;18.15;15.10;;;35.50;99.90;;;;;;5068819;28;20251;-71
2022/08/26 11:42:53;;;;;;;19.80;15.35;;;34.70;99.90;;;;;;5067760;28;20692;-72
2022/08/26 11:45:45;;;;;;;19.95;14.65;;;34.00;99.90;;;;;;5065397;28;20259;-71
2022/08/26 11:48:31;;;;;;;25.55;16.20;;;34.00;99.90;;;;;;5064107;28;20198;-71
2022/08/26 11:50:59;;;;;;;22.40;14.82;;;34.40;99.90;;;;;;5065310;28;20263;-71
2022/08/26 11:53:27;;;;;;;20.38;14.90;;;34.80;99.90;;;;;;5066331;28;20224;-72
2022/08/26 11:55:57;;;;;;;21.45;16.02;;;35.20;99.90;;;;;;5042979;28;20225;-72
2022/08/26 11:58:26;;;;;;;19.05;14.20;;;35.50;99.90;;;;;;5067268;28;20868;-73
2022/08/26 12:01:00;;;;;;;17.70;15.02;;;35.90;99.90;;;;;;5063943;28;20198;-71
2022/08/26 12:03:49;;;;;;;20.90;15.55;;;35.80;99.90;;;;;;5061558;28;20189;-70
2022/08/26 12:06:22;;;;;;;27.25;15.85;;;35.90;99.90;;;;;;5058782;28;20641;-69
2022/08/26 12:08:52;;;;;;;19.38;15.80;;;36.30;99.90;;;;;;5038619;28;20206;-71
2022/08/26 12:11:25;;;;;;;23.92;17.08;;;36.10;99.90;;;;;;5047817;28;20198;-72
2022/08/26 12:14:04;;;;;;;21.33;16.70;;;35.40;99.90;;;;;;5057474;28;20194;-74
2022/08/26 12:16:36;;;;;;;21.65;16.65;;;35.20;99.90;;;;;;5057980;28;20332;-73
2022/08/26 12:19:28;;;;;;;18.33;15.35;;;34.90;99.90;;;;;;5058960;28;20194;-73
2022/08/26 12:22:09;;;;;;;19.58;15.90;;;34.60;99.90;;;;;;5053724;28;20194;-72
2022/08/26 12:24:52;;;;;;;20.23;15.13;;;33.90;99.90;;;;;;5036219;28;20260;-73
2022/08/26 12:27:31;;;;;;;22.10;15.15;;;33.20;99.90;;;;;;5051037;28;20222;-74
2022/08/26 12:30:06;;;;;;;18.83;15.38;;;33.10;99.90;;;;;;5049937;28;20703;-74
2022/08/26 12:32:38;;;;;;;24.17;16.55;;;32.90;99.90;;;;;;5052471;28;20224;-74
2022/08/26 12:35:24;;;;;;;21.98;16.75;;;32.50;99.90;;;;;;5056652;28;20251;-74
2022/08/26 12:37:52;;;;;;;29.83;17.05;;;31.90;99.90;;;;;;5067305;28;20209;-74
2022/08/26 12:40:40;;;;;;;23.67;17.30;;;31.60;99.90;;;;;;5046804;28;20187;-73
2022/08/26 12:43:09;;;;;;;25.25;17.17;;;31.10;99.90;;;;;;5061930;28;20202;-74
2022/08/26 12:45:42;;;;;;;21.00;15.63;;;30.50;99.90;;;;;;5062711;28;20219;-73
2022/08/26 12:48:14;;;;;;;21.38;15.15;;;30.30;99.90;;;;;;5047680;28;20289;-72
2022/08/26 12:50:46;;;;;;;21.15;15.80;;;29.90;99.90;;;;;;5060879;28;20263;-73
2022/08/26 12:53:19;;;;;;;22.55;15.60;;;29.50;99.90;;;;;;5061706;28;20218;-74
2022/08/26 12:55:49;;;;;;;24.67;17.02;;;29.30;99.90;;;;;;5061291;28;20190;-71
2022/08/26 12:58:22;;;;;;;25.83;16.75;;;29.10;99.90;;;;;;5061296;28;20285;-73
2022/08/26 13:01:13;;;;;;;25.45;17.23;;;29.10;99.90;;;;;;5059409;28;20186;-72
2022/08/26 13:03:44;;;;;;;23.98;17.23;;;29.10;99.90;;;;;;5061436;28;20194;-72
2022/08/26 13:06:30;;;;;;;28.98;17.25;;;29.10;99.90;;;;;;5060910;28;20575;-72
2022/08/26 13:09:22;;;;;;;23.05;16.60;;;29.00;99.90;;;;;;5062580;28;20210;-74